METAR Data
IDs: Format: Raw Decoded Include TAF

Data at: 0835 UTC 03 Aug 2021

LFMN 030830Z 20009KT 9999 FEW033 24/19 Q1015 NOSIG